sensor_id;sensor_type;location;lat;lon;timestamp;pressure;altitude;pressure_sealevel;temperature;humidity
62055;BME280;48653;51.742;-1.256;2023-12-07T00:03:46;100731.70;;;5.16;54.68
62055;BME280;48653;51.742;-1.256;2023-12-07T00:06:11;100730.64;;;4.94;56.80
62055;BME280;48653;51.742;-1.256;2023-12-07T00:08:36;100722.34;;;4.69;57.97
62055;BME280;48653;51.742;-1.256;2023-12-07T00:11:01;100721.55;;;4.67;59.29
62055;BME280;48653;51.742;-1.256;2023-12-07T00:13:27;100719.18;;;4.02;59.56
62055;BME280;48653;51.742;-1.256;2023-12-07T00:15:52;100717.11;;;5.10;58.43
62055;BME280;48653;51.742;-1.256;2023-12-07T00:18:18;100712.91;;;4.79;59.17
62055;BME280;48653;51.742;-1.256;2023-12-07T00:20:44;100715.96;;;4.52;59.65
62055;BME280;48653;51.742;-1.256;2023-12-07T00:23:10;100705.18;;;4.52;59.87
62055;BME280;48653;51.742;-1.256;2023-12-07T00:25:35;100705.25;;;4.45;61.36
62055;BME280;48653;51.742;-1.256;2023-12-07T00:28:00;100696.22;;;4.22;60.25
62055;BME280;48653;51.742;-1.256;2023-12-07T00:30:26;100695.59;;;4.25;59.44
62055;BME280;48653;51.742;-1.256;2023-12-07T00:32:51;100685.66;;;4.46;59.20
62055;BME280;48653;51.742;-1.256;2023-12-07T00:35:17;100691.77;;;3.47;60.74
62055;BME280;48653;51.742;-1.256;2023-12-07T00:37:42;100694.68;;;4.08;60.24
62055;BME280;48653;51.742;-1.256;2023-12-07T00:40:08;100697.64;;;3.74;60.34
62055;BME280;48653;51.742;-1.256;2023-12-07T00:42:33;100695.72;;;4.88;58.14
62055;BME280;48653;51.742;-1.256;2023-12-07T00:44:59;100696.77;;;4.37;58.39
62055;BME280;48653;51.742;-1.256;2023-12-07T00:47:25;100696.09;;;4.94;57.70
62055;BME280;48653;51.742;-1.256;2023-12-07T00:49:50;100697.78;;;5.30;57.13
62055;BME280;48653;51.742;-1.256;2023-12-07T00:52:15;100695.19;;;4.46;58.38
62055;BME280;48653;51.742;-1.256;2023-12-07T00:54:40;100695.24;;;4.87;57.96
62055;BME280;48653;51.742;-1.256;2023-12-07T00:57:06;100693.62;;;5.19;56.87
62055;BME280;48653;51.742;-1.256;2023-12-07T00:59:31;100690.84;;;5.28;57.23
62055;BME280;48653;51.742;-1.256;2023-12-07T01:01:56;100681.97;;;4.46;59.89
62055;BME280;48653;51.742;-1.256;2023-12-07T01:04:21;100685.73;;;4.64;59.93
62055;BME280;48653;51.742;-1.256;2023-12-07T01:06:46;100680.46;;;4.82;59.81
62055;BME280;48653;51.742;-1.256;2023-12-07T01:09:12;100676.48;;;4.47;59.40
62055;BME280;48653;51.742;-1.256;2023-12-07T01:11:37;100672.18;;;4.34;60.73
62055;BME280;48653;51.742;-1.256;2023-12-07T01:14:02;100667.47;;;3.25;64.45
62055;BME280;48653;51.742;-1.256;2023-12-07T01:16:28;100662.04;;;3.54;63.84
62055;BME280;48653;51.742;-1.256;2023-12-07T01:18:53;100656.04;;;4.05;62.19
62055;BME280;48653;51.742;-1.256;2023-12-07T01:21:18;100654.87;;;4.79;61.53
62055;BME280;48653;51.742;-1.256;2023-12-07T01:23:44;100653.29;;;4.67;61.10
62055;BME280;48653;51.742;-1.256;2023-12-07T01:26:10;100651.06;;;4.05;61.92
62055;BME280;48653;51.742;-1.256;2023-12-07T01:28:35;100649.43;;;4.85;60.74
62055;BME280;48653;51.742;-1.256;2023-12-07T01:31:00;100647.99;;;4.51;60.39
62055;BME280;48653;51.742;-1.256;2023-12-07T01:33:26;100648.69;;;4.92;59.36
62055;BME280;48653;51.742;-1.256;2023-12-07T01:35:51;100646.22;;;5.10;59.29
62055;BME280;48653;51.742;-1.256;2023-12-07T01:38:16;100638.06;;;5.03;58.60
62055;BME280;48653;51.742;-1.256;2023-12-07T01:40:42;100634.29;;;5.08;59.62
62055;BME280;48653;51.742;-1.256;2023-12-07T01:43:07;100625.52;;;5.07;59.98
62055;BME280;48653;51.742;-1.256;2023-12-07T01:45:33;100618.21;;;4.15;62.71
62055;BME280;48653;51.742;-1.256;2023-12-07T01:47:58;100609.32;;;4.26;62.83
62055;BME280;48653;51.742;-1.256;2023-12-07T01:50:23;100602.04;;;4.18;63.30
62055;BME280;48653;51.742;-1.256;2023-12-07T01:52:52;100600.20;;;4.10;63.44
62055;BME280;48653;51.742;-1.256;2023-12-07T01:55:15;100596.33;;;3.49;63.62
62055;BME280;48653;51.742;-1.256;2023-12-07T01:57:41;100600.92;;;4.52;61.43
62055;BME280;48653;51.742;-1.256;2023-12-07T02:00:07;100599.04;;;4.41;61.51
62055;BME280;48653;51.742;-1.256;2023-12-07T02:02:31;100596.02;;;4.46;61.07
62055;BME280;48653;51.742;-1.256;2023-12-07T02:04:57;100599.15;;;4.66;61.02
62055;BME280;48653;51.742;-1.256;2023-12-07T02:07:23;100595.52;;;4.66;60.65
62055;BME280;48653;51.742;-1.256;2023-12-07T02:09:48;100590.43;;;4.88;59.22
62055;BME280;48653;51.742;-1.256;2023-12-07T02:12:14;100584.61;;;4.06;61.40
62055;BME280;48653;51.742;-1.256;2023-12-07T02:14:39;100585.56;;;3.85;61.46
62055;BME280;48653;51.742;-1.256;2023-12-07T02:17:11;100586.61;;;3.94;63.65
62055;BME280;48653;51.742;-1.256;2023-12-07T02:19:46;100582.98;;;4.00;63.81
62055;BME280;48653;51.742;-1.256;2023-12-07T02:21:59;100579.92;;;4.43;62.93
62055;BME280;48653;51.742;-1.256;2023-12-07T02:24:21;100579.46;;;3.80;63.74
62055;BME280;48653;51.742;-1.256;2023-12-07T02:26:45;100576.60;;;4.00;62.17
62055;BME280;48653;51.742;-1.256;2023-12-07T02:29:11;100574.93;;;4.72;60.71
62055;BME280;48653;51.742;-1.256;2023-12-07T02:31:36;100566.06;;;4.03;62.09
62055;BME280;48653;51.742;-1.256;2023-12-07T02:34:01;100557.98;;;4.75;60.43
62055;BME280;48653;51.742;-1.256;2023-12-07T02:36:28;100553.33;;;4.39;61.92
62055;BME280;48653;51.742;-1.256;2023-12-07T02:38:55;100539.02;;;3.85;64.12
62055;BME280;48653;51.742;-1.256;2023-12-07T02:41:19;100537.62;;;4.04;63.03
62055;BME280;48653;51.742;-1.256;2023-12-07T02:43:43;100536.82;;;4.27;61.40
62055;BME280;48653;51.742;-1.256;2023-12-07T02:46:08;100532.10;;;3.74;64.03
62055;BME280;48653;51.742;-1.256;2023-12-07T02:48:33;100527.81;;;3.35;65.16
62055;BME280;48653;51.742;-1.256;2023-12-07T02:50:59;100529.11;;;3.61;64.88
62055;BME280;48653;51.742;-1.256;2023-12-07T02:53:24;100528.99;;;3.99;63.32
62055;BME280;48653;51.742;-1.256;2023-12-07T02:55:50;100531.17;;;2.88;66.00
62055;BME280;48653;51.742;-1.256;2023-12-07T02:58:15;100533.46;;;3.95;63.90
62055;BME280;48653;51.742;-1.256;2023-12-07T03:00:40;100533.24;;;4.22;63.19
62055;BME280;48653;51.742;-1.256;2023-12-07T03:03:06;100530.10;;;4.83;62.23
62055;BME280;48653;51.742;-1.256;2023-12-07T03:05:32;100526.48;;;4.82;61.38
62055;BME280;48653;51.742;-1.256;2023-12-07T03:07:57;100522.25;;;4.28;63.10
62055;BME280;48653;51.742;-1.256;2023-12-07T03:10:22;100514.15;;;4.49;63.12
62055;BME280;48653;51.742;-1.256;2023-12-07T03:12:47;100512.59;;;4.45;62.85
62055;BME280;48653;51.742;-1.256;2023-12-07T03:15:13;100503.36;;;4.19;62.73
62055;BME280;48653;51.742;-1.256;2023-12-07T03:17:38;100501.50;;;4.10;63.70
62055;BME280;48653;51.742;-1.256;2023-12-07T03:20:04;100504.99;;;3.84;64.42
62055;BME280;48653;51.742;-1.256;2023-12-07T03:22:29;100511.78;;;3.94;64.81
62055;BME280;48653;51.742;-1.256;2023-12-07T03:24:55;100515.03;;;4.06;65.35
62055;BME280;48653;51.742;-1.256;2023-12-07T03:27:20;100511.11;;;4.20;64.39
62055;BME280;48653;51.742;-1.256;2023-12-07T03:29:45;100507.03;;;3.65;65.69
62055;BME280;48653;51.742;-1.256;2023-12-07T03:32:11;100500.19;;;4.36;64.26
62055;BME280;48653;51.742;-1.256;2023-12-07T03:34:37;100493.96;;;3.32;67.51
62055;BME280;48653;51.742;-1.256;2023-12-07T03:37:02;100492.84;;;3.92;65.61
62055;BME280;48653;51.742;-1.256;2023-12-07T03:39:27;100480.75;;;4.35;64.12
62055;BME280;48653;51.742;-1.256;2023-12-07T03:41:53;100477.43;;;4.19;64.38
62055;BME280;48653;51.742;-1.256;2023-12-07T03:44:18;100465.82;;;3.99;64.92
62055;BME280;48653;51.742;-1.256;2023-12-07T03:46:43;100458.51;;;3.89;65.76
62055;BME280;48653;51.742;-1.256;2023-12-07T03:49:09;100453.36;;;4.25;64.23
62055;BME280;48653;51.742;-1.256;2023-12-07T03:51:34;100448.62;;;3.87;65.73
62055;BME280;48653;51.742;-1.256;2023-12-07T03:54:00;100448.47;;;3.72;66.38
62055;BME280;48653;51.742;-1.256;2023-12-07T03:56:27;100451.40;;;3.84;66.97
62055;BME280;48653;51.742;-1.256;2023-12-07T03:58:50;100445.68;;;3.42;68.56
62055;BME280;48653;51.742;-1.256;2023-12-07T04:01:16;100443.51;;;3.73;68.25
62055;BME280;48653;51.742;-1.256;2023-12-07T04:03:41;100440.95;;;3.53;68.14
62055;BME280;48653;51.742;-1.256;2023-12-07T04:06:07;100434.11;;;4.15;67.07
62055;BME280;48653;51.742;-1.256;2023-12-07T04:08:32;100425.39;;;4.20;65.86
62055;BME280;48653;51.742;-1.256;2023-12-07T04:10:58;100412.75;;;3.69;68.61
62055;BME280;48653;51.742;-1.256;2023-12-07T04:13:23;100414.53;;;3.40;69.80
62055;BME280;48653;51.742;-1.256;2023-12-07T04:15:48;100404.19;;;3.54;69.28
62055;BME280;48653;51.742;-1.256;2023-12-07T04:18:13;100398.15;;;4.29;67.13
62055;BME280;48653;51.742;-1.256;2023-12-07T04:20:38;100396.74;;;4.33;67.57
62055;BME280;48653;51.742;-1.256;2023-12-07T04:23:03;100391.07;;;4.01;68.47
62055;BME280;48653;51.742;-1.256;2023-12-07T04:25:28;100395.17;;;3.20;70.72
62055;BME280;48653;51.742;-1.256;2023-12-07T04:27:54;100393.99;;;3.67;68.83
62055;BME280;48653;51.742;-1.256;2023-12-07T04:30:19;100393.16;;;3.89;68.16
62055;BME280;48653;51.742;-1.256;2023-12-07T04:32:44;100390.25;;;4.42;66.10
62055;BME280;48653;51.742;-1.256;2023-12-07T04:35:09;100381.72;;;4.65;65.92
62055;BME280;48653;51.742;-1.256;2023-12-07T04:37:34;100379.60;;;4.76;64.89
62055;BME280;48653;51.742;-1.256;2023-12-07T04:40:00;100377.12;;;4.09;67.52
62055;BME280;48653;51.742;-1.256;2023-12-07T04:42:25;100366.83;;;3.89;68.04
62055;BME280;48653;51.742;-1.256;2023-12-07T04:44:50;100364.65;;;3.99;68.72
62055;BME280;48653;51.742;-1.256;2023-12-07T04:47:15;100361.71;;;4.04;68.34
62055;BME280;48653;51.742;-1.256;2023-12-07T04:49:41;100357.15;;;4.11;68.13
62055;BME280;48653;51.742;-1.256;2023-12-07T04:52:06;100347.61;;;3.49;69.82
62055;BME280;48653;51.742;-1.256;2023-12-07T04:54:31;100347.23;;;4.10;69.62
62055;BME280;48653;51.742;-1.256;2023-12-07T04:56:57;100354.71;;;3.60;70.58
62055;BME280;48653;51.742;-1.256;2023-12-07T04:59:23;100342.39;;;4.16;69.57
62055;BME280;48653;51.742;-1.256;2023-12-07T05:01:48;100340.55;;;3.83;69.42
62055;BME280;48653;51.742;-1.256;2023-12-07T05:04:13;100332.66;;;3.74;70.54
62055;BME280;48653;51.742;-1.256;2023-12-07T05:06:39;100343.80;;;3.23;72.47
62055;BME280;48653;51.742;-1.256;2023-12-07T05:09:04;100333.50;;;3.74;70.41
62055;BME280;48653;51.742;-1.256;2023-12-07T05:11:30;100337.18;;;3.68;72.13
62055;BME280;48653;51.742;-1.256;2023-12-07T05:13:55;100329.66;;;3.58;72.01
62055;BME280;48653;51.742;-1.256;2023-12-07T05:16:21;100332.27;;;4.09;70.69
62055;BME280;48653;51.742;-1.256;2023-12-07T05:18:47;100332.41;;;3.99;71.23
62055;BME280;48653;51.742;-1.256;2023-12-07T05:21:12;100327.26;;;4.45;70.16
62055;BME280;48653;51.742;-1.256;2023-12-07T05:23:38;100324.77;;;3.39;73.74
62055;BME280;48653;51.742;-1.256;2023-12-07T05:26:03;100320.39;;;3.23;74.56
62055;BME280;48653;51.742;-1.256;2023-12-07T05:28:28;100325.12;;;3.79;73.25
62055;BME280;48653;51.742;-1.256;2023-12-07T05:30:54;100325.40;;;4.23;71.02
62055;BME280;48653;51.742;-1.256;2023-12-07T05:33:19;100327.49;;;4.04;71.66
62055;BME280;48653;51.742;-1.256;2023-12-07T05:35:45;100324.00;;;4.22;69.30
62055;BME280;48653;51.742;-1.256;2023-12-07T05:38:10;100319.25;;;4.71;67.07
62055;BME280;48653;51.742;-1.256;2023-12-07T05:40:35;100308.52;;;4.98;66.20
62055;BME280;48653;51.742;-1.256;2023-12-07T05:43:00;100303.62;;;4.62;68.46
62055;BME280;48653;51.742;-1.256;2023-12-07T05:45:27;100301.64;;;4.41;69.26
62055;BME280;48653;51.742;-1.256;2023-12-07T05:47:51;100292.92;;;4.41;69.54
62055;BME280;48653;51.742;-1.256;2023-12-07T05:50:17;100299.39;;;3.42;72.06
62055;BME280;48653;51.742;-1.256;2023-12-07T05:52:42;100302.45;;;4.08;71.52
62055;BME280;48653;51.742;-1.256;2023-12-07T05:55:14;100302.75;;;4.05;70.43
62055;BME280;48653;51.742;-1.256;2023-12-07T05:57:32;100300.36;;;4.56;70.28
62055;BME280;48653;51.742;-1.256;2023-12-07T05:59:58;100303.80;;;4.18;71.33
62055;BME280;48653;51.742;-1.256;2023-12-07T06:02:23;100302.04;;;4.26;71.23
62055;BME280;48653;51.742;-1.256;2023-12-07T06:04:49;100293.10;;;4.63;69.60
62055;BME280;48653;51.742;-1.256;2023-12-07T06:07:25;100291.57;;;4.34;70.09
62055;BME280;48653;51.742;-1.256;2023-12-07T06:09:40;100290.32;;;3.80;71.49
62055;BME280;48653;51.742;-1.256;2023-12-07T06:12:05;100294.38;;;4.27;72.11
62055;BME280;48653;51.742;-1.256;2023-12-07T06:14:31;100295.13;;;4.21;71.39
62055;BME280;48653;51.742;-1.256;2023-12-07T06:16:57;100285.32;;;4.32;70.65
62055;BME280;48653;51.742;-1.256;2023-12-07T06:19:23;100275.77;;;4.26;71.62
62055;BME280;48653;51.742;-1.256;2023-12-07T06:21:48;100277.03;;;4.54;70.50
62055;BME280;48653;51.742;-1.256;2023-12-07T06:24:13;100273.76;;;4.15;70.98
62055;BME280;48653;51.742;-1.256;2023-12-07T06:26:39;100278.47;;;4.18;72.16
62055;BME280;48653;51.742;-1.256;2023-12-07T06:29:04;100275.05;;;4.08;73.11
62055;BME280;48653;51.742;-1.256;2023-12-07T06:31:29;100266.83;;;4.07;72.56
62055;BME280;48653;51.742;-1.256;2023-12-07T06:33:55;100264.10;;;4.51;70.55
62055;BME280;48653;51.742;-1.256;2023-12-07T06:36:21;100268.62;;;4.53;70.62
62055;BME280;48653;51.742;-1.256;2023-12-07T06:38:46;100264.42;;;4.28;70.85
62055;BME280;48653;51.742;-1.256;2023-12-07T06:41:11;100258.26;;;4.41;70.87
62055;BME280;48653;51.742;-1.256;2023-12-07T06:43:37;100259.00;;;4.35;71.39
62055;BME280;48653;51.742;-1.256;2023-12-07T06:46:02;100247.91;;;4.75;69.82
62055;BME280;48653;51.742;-1.256;2023-12-07T06:48:27;100241.35;;;5.17;69.10
62055;BME280;48653;51.742;-1.256;2023-12-07T06:50:53;100241.10;;;4.45;70.90
62055;BME280;48653;51.742;-1.256;2023-12-07T06:53:18;100237.47;;;4.34;69.71
62055;BME280;48653;51.742;-1.256;2023-12-07T06:55:43;100240.00;;;4.78;70.43
62055;BME280;48653;51.742;-1.256;2023-12-07T06:58:09;100239.78;;;4.50;70.62
62055;BME280;48653;51.742;-1.256;2023-12-07T07:00:34;100248.30;;;4.39;72.42
62055;BME280;48653;51.742;-1.256;2023-12-07T07:02:59;100237.45;;;4.56;71.88
62055;BME280;48653;51.742;-1.256;2023-12-07T07:05:24;100235.21;;;4.76;70.61
62055;BME280;48653;51.742;-1.256;2023-12-07T07:07:49;100234.40;;;4.20;71.89
62055;BME280;48653;51.742;-1.256;2023-12-07T07:10:15;100223.45;;;4.19;72.81
62055;BME280;48653;51.742;-1.256;2023-12-07T07:12:40;100223.89;;;4.62;72.18
62055;BME280;48653;51.742;-1.256;2023-12-07T07:15:07;100212.92;;;5.04;70.29
62055;BME280;48653;51.742;-1.256;2023-12-07T07:17:32;100215.66;;;4.82;70.90
62055;BME280;48653;51.742;-1.256;2023-12-07T07:19:58;100205.77;;;5.10;68.68
62055;BME280;48653;51.742;-1.256;2023-12-07T07:22:22;100207.09;;;4.50;71.14
62055;BME280;48653;51.742;-1.256;2023-12-07T07:27:13;100192.46;;;4.64;70.14
62055;BME280;48653;51.742;-1.256;2023-12-07T07:29:39;100195.84;;;5.43;68.36
62055;BME280;48653;51.742;-1.256;2023-12-07T07:32:05;100196.66;;;4.79;69.85
62055;BME280;48653;51.742;-1.256;2023-12-07T07:34:29;100182.04;;;4.53;70.36
62055;BME280;48653;51.742;-1.256;2023-12-07T07:36:55;100179.24;;;5.00;69.21
62055;BME280;48653;51.742;-1.256;2023-12-07T07:39:20;100174.57;;;5.12;68.42
62055;BME280;48653;51.742;-1.256;2023-12-07T07:41:46;100177.13;;;4.83;69.79
62055;BME280;48653;51.742;-1.256;2023-12-07T07:44:12;100179.22;;;4.35;70.90
62055;BME280;48653;51.742;-1.256;2023-12-07T07:46:37;100177.59;;;4.58;71.48
62055;BME280;48653;51.742;-1.256;2023-12-07T07:49:03;100178.51;;;4.98;69.45
62055;BME280;48653;51.742;-1.256;2023-12-07T07:51:28;100181.49;;;5.46;66.95
62055;BME280;48653;51.742;-1.256;2023-12-07T07:53:54;100175.99;;;5.65;66.56
62055;BME280;48653;51.742;-1.256;2023-12-07T07:56:19;100173.48;;;5.40;68.35
62055;BME280;48653;51.742;-1.256;2023-12-07T07:58:44;100178.95;;;4.31;72.30
62055;BME280;48653;51.742;-1.256;2023-12-07T08:01:10;100171.23;;;4.28;72.99
62055;BME280;48653;51.742;-1.256;2023-12-07T08:03:36;100174.40;;;4.65;72.88
62055;BME280;48653;51.742;-1.256;2023-12-07T08:06:01;100167.14;;;4.80;70.42
62055;BME280;48653;51.742;-1.256;2023-12-07T08:08:26;100173.79;;;5.05;70.25
62055;BME280;48653;51.742;-1.256;2023-12-07T08:10:52;100167.05;;;5.51;69.52
62055;BME280;48653;51.742;-1.256;2023-12-07T08:13:17;100167.57;;;4.89;70.83
62055;BME280;48653;51.742;-1.256;2023-12-07T08:15:42;100163.75;;;5.20;69.07
62055;BME280;48653;51.742;-1.256;2023-12-07T08:18:07;100162.89;;;5.33;68.77
62055;BME280;48653;51.742;-1.256;2023-12-07T08:20:32;100154.21;;;4.88;69.96
62055;BME280;48653;51.742;-1.256;2023-12-07T08:22:59;100159.50;;;4.76;71.52
62055;BME280;48653;51.742;-1.256;2023-12-07T08:25:23;100153.64;;;5.34;70.18
62055;BME280;48653;51.742;-1.256;2023-12-07T08:27:48;100150.46;;;5.06;70.13
62055;BME280;48653;51.742;-1.256;2023-12-07T08:30:14;100149.53;;;5.28;69.72
62055;BME280;48653;51.742;-1.256;2023-12-07T08:32:39;100142.77;;;5.00;69.57
62055;BME280;48653;51.742;-1.256;2023-12-07T08:35:05;100143.11;;;4.23;71.93
62055;BME280;48653;51.742;-1.256;2023-12-07T08:37:29;100138.71;;;4.61;70.46
62055;BME280;48653;51.742;-1.256;2023-12-07T08:39:54;100137.46;;;4.87;70.32
62055;BME280;48653;51.742;-1.256;2023-12-07T08:42:20;100132.27;;;5.35;70.05
62055;BME280;48653;51.742;-1.256;2023-12-07T08:44:45;100132.28;;;4.76;71.53
62055;BME280;48653;51.742;-1.256;2023-12-07T08:47:10;100125.95;;;4.29;73.35
62055;BME280;48653;51.742;-1.256;2023-12-07T08:49:35;100123.62;;;5.20;70.55
62055;BME280;48653;51.742;-1.256;2023-12-07T08:52:00;100117.97;;;4.97;69.56
62055;BME280;48653;51.742;-1.256;2023-12-07T08:54:26;100110.07;;;4.96;70.27
62055;BME280;48653;51.742;-1.256;2023-12-07T08:56:51;100113.56;;;4.36;73.12
62055;BME280;48653;51.742;-1.256;2023-12-07T08:59:16;100098.89;;;4.15;72.70
62055;BME280;48653;51.742;-1.256;2023-12-07T09:01:41;100092.18;;;4.45;72.70
62055;BME280;48653;51.742;-1.256;2023-12-07T09:04:07;100081.56;;;4.29;72.23
62055;BME280;48653;51.742;-1.256;2023-12-07T09:06:32;100068.15;;;4.21;73.35
62055;BME280;48653;51.742;-1.256;2023-12-07T09:08:58;100069.59;;;4.53;70.55
62055;BME280;48653;51.742;-1.256;2023-12-07T09:11:23;100066.06;;;4.18;72.42
62055;BME280;48653;51.742;-1.256;2023-12-07T09:13:48;100056.23;;;4.26;71.36
62055;BME280;48653;51.742;-1.256;2023-12-07T09:16:13;100057.13;;;4.87;70.45
62055;BME280;48653;51.742;-1.256;2023-12-07T09:18:38;100055.99;;;4.77;69.89
62055;BME280;48653;51.742;-1.256;2023-12-07T09:21:04;100048.41;;;4.55;71.25
62055;BME280;48653;51.742;-1.256;2023-12-07T09:23:30;100039.33;;;4.48;72.15
62055;BME280;48653;51.742;-1.256;2023-12-07T09:25:54;100036.18;;;5.34;68.76
62055;BME280;48653;51.742;-1.256;2023-12-07T09:28:20;100030.41;;;5.03;69.50
62055;BME280;48653;51.742;-1.256;2023-12-07T09:30:45;100031.54;;;4.99;69.35
62055;BME280;48653;51.742;-1.256;2023-12-07T09:33:11;100025.55;;;4.90;69.04
62055;BME280;48653;51.742;-1.256;2023-12-07T09:35:36;100025.47;;;4.61;69.07
62055;BME280;48653;51.742;-1.256;2023-12-07T09:38:01;100020.00;;;4.83;70.39
62055;BME280;48653;51.742;-1.256;2023-12-07T09:40:27;100022.89;;;4.66;70.09
62055;BME280;48653;51.742;-1.256;2023-12-07T09:42:52;100023.56;;;4.94;69.06
62055;BME280;48653;51.742;-1.256;2023-12-07T09:45:18;100029.55;;;5.12;69.22
62055;BME280;48653;51.742;-1.256;2023-12-07T09:47:46;100031.38;;;5.53;66.41
62055;BME280;48653;51.742;-1.256;2023-12-07T09:50:09;100031.50;;;5.00;68.37
62055;BME280;48653;51.742;-1.256;2023-12-07T09:52:34;100030.98;;;4.69;68.57
62055;BME280;48653;51.742;-1.256;2023-12-07T09:55:02;100020.93;;;5.14;68.16
62055;BME280;48653;51.742;-1.256;2023-12-07T09:57:24;100025.49;;;5.28;67.78
62055;BME280;48653;51.742;-1.256;2023-12-07T09:59:50;100020.75;;;4.96;68.83
62055;BME280;48653;51.742;-1.256;2023-12-07T10:02:16;100018.17;;;4.99;67.88
62055;BME280;48653;51.742;-1.256;2023-12-07T10:04:41;100020.39;;;5.72;66.98
62055;BME280;48653;51.742;-1.256;2023-12-07T10:07:07;100018.35;;;5.21;67.38
62055;BME280;48653;51.742;-1.256;2023-12-07T10:09:32;100007.10;;;4.82;68.23
62055;BME280;48653;51.742;-1.256;2023-12-07T10:12:02;100000.88;;;5.31;67.37
62055;BME280;48653;51.742;-1.256;2023-12-07T10:14:23;99994.35;;;5.57;66.76
62055;BME280;48653;51.742;-1.256;2023-12-07T10:16:53;99988.80;;;5.57;65.93
62055;BME280;48653;51.742;-1.256;2023-12-07T10:19:15;99982.30;;;5.60;66.13
62055;BME280;48653;51.742;-1.256;2023-12-07T10:21:39;99984.11;;;5.26;65.38
62055;BME280;48653;51.742;-1.256;2023-12-07T10:24:05;99984.31;;;5.28;66.09
62055;BME280;48653;51.742;-1.256;2023-12-07T10:26:30;99964.40;;;4.91;67.26
62055;BME280;48653;51.742;-1.256;2023-12-07T10:28:55;99955.98;;;5.28;65.23
62055;BME280;48653;51.742;-1.256;2023-12-07T10:31:20;99961.88;;;5.37;66.68
62055;BME280;48653;51.742;-1.256;2023-12-07T10:33:47;99959.94;;;5.74;64.61
62055;BME280;48653;51.742;-1.256;2023-12-07T10:36:11;99956.12;;;5.88;64.49
62055;BME280;48653;51.742;-1.256;2023-12-07T10:38:36;99958.43;;;5.85;64.05
62055;BME280;48653;51.742;-1.256;2023-12-07T10:41:05;99963.05;;;6.07;63.21
62055;BME280;48653;51.742;-1.256;2023-12-07T10:43:27;99950.21;;;6.43;61.19
62055;BME280;48653;51.742;-1.256;2023-12-07T10:45:53;99957.05;;;5.86;62.96
62055;BME280;48653;51.742;-1.256;2023-12-07T10:48:17;99945.45;;;5.50;64.43
62055;BME280;48653;51.742;-1.256;2023-12-07T10:50:46;99944.13;;;5.78;63.97
62055;BME280;48653;51.742;-1.256;2023-12-07T10:53:10;99950.61;;;6.11;62.09
62055;BME280;48653;51.742;-1.256;2023-12-07T10:55:40;99944.10;;;5.50;63.54
62055;BME280;48653;51.742;-1.256;2023-12-07T10:57:59;99941.33;;;4.91;63.99
62055;BME280;48653;51.742;-1.256;2023-12-07T11:00:24;99942.90;;;5.44;63.96
62055;BME280;48653;51.742;-1.256;2023-12-07T11:02:49;99940.88;;;5.54;63.54
62055;BME280;48653;51.742;-1.256;2023-12-07T11:05:14;99927.43;;;5.79;63.69
62055;BME280;48653;51.742;-1.256;2023-12-07T11:07:49;99925.28;;;6.12;62.41
62055;BME280;48653;51.742;-1.256;2023-12-07T11:10:11;99914.69;;;5.55;63.03
62055;BME280;48653;51.742;-1.256;2023-12-07T11:12:35;99922.52;;;5.86;62.03
62055;BME280;48653;51.742;-1.256;2023-12-07T11:14:55;99922.91;;;4.64;65.34
62055;BME280;48653;51.742;-1.256;2023-12-07T11:17:21;99922.85;;;5.51;64.74
62055;BME280;48653;51.742;-1.256;2023-12-07T11:19:47;99921.90;;;5.22;64.30
62055;BME280;48653;51.742;-1.256;2023-12-07T11:22:12;99917.60;;;5.46;63.25
62055;BME280;48653;51.742;-1.256;2023-12-07T11:24:37;99903.43;;;5.20;63.87
62055;BME280;48653;51.742;-1.256;2023-12-07T11:27:03;99902.22;;;4.91;65.00
62055;BME280;48653;51.742;-1.256;2023-12-07T11:29:29;99899.96;;;4.92;64.65
62055;BME280;48653;51.742;-1.256;2023-12-07T11:31:56;99891.80;;;5.14;65.36
62055;BME280;48653;51.742;-1.256;2023-12-07T11:36:43;99884.06;;;4.76;63.99
62055;BME280;48653;51.742;-1.256;2023-12-07T11:39:16;99881.91;;;4.36;65.96
62055;BME280;48653;51.742;-1.256;2023-12-07T11:41:35;99881.84;;;4.67;65.03
62055;BME280;48653;51.742;-1.256;2023-12-07T11:43:59;99868.75;;;4.87;64.14
62055;BME280;48653;51.742;-1.256;2023-12-07T11:46:23;99852.54;;;5.20;64.01
62055;BME280;48653;51.742;-1.256;2023-12-07T11:48:49;99878.54;;;5.06;63.42
62055;BME280;48653;51.742;-1.256;2023-12-07T11:51:15;99866.81;;;4.72;63.76
62055;BME280;48653;51.742;-1.256;2023-12-07T11:53:39;99870.49;;;5.26;63.52
62055;BME280;48653;51.742;-1.256;2023-12-07T11:56:08;99866.38;;;5.34;62.53
62055;BME280;48653;51.742;-1.256;2023-12-07T11:58:31;99860.55;;;5.54;62.59
62055;BME280;48653;51.742;-1.256;2023-12-07T12:00:55;99852.02;;;5.70;61.90
62055;BME280;48653;51.742;-1.256;2023-12-07T12:03:20;99843.41;;;5.99;60.84
62055;BME280;48653;51.742;-1.256;2023-12-07T12:05:45;99839.17;;;5.83;60.96
62055;BME280;48653;51.742;-1.256;2023-12-07T12:08:10;99835.14;;;5.32;61.85
62055;BME280;48653;51.742;-1.256;2023-12-07T12:10:35;99840.23;;;5.10;63.93
62055;BME280;48653;51.742;-1.256;2023-12-07T12:13:01;99835.07;;;5.03;62.31
62055;BME280;48653;51.742;-1.256;2023-12-07T12:15:25;99822.45;;;5.13;64.32
62055;BME280;48653;51.742;-1.256;2023-12-07T12:17:51;99815.24;;;5.01;62.52
62055;BME280;48653;51.742;-1.256;2023-12-07T12:20:16;99796.04;;;5.22;63.24
62055;BME280;48653;51.742;-1.256;2023-12-07T12:22:41;99789.39;;;5.13;62.40
62055;BME280;48653;51.742;-1.256;2023-12-07T12:25:08;99785.53;;;5.52;62.27
62055;BME280;48653;51.742;-1.256;2023-12-07T12:27:32;99775.73;;;4.97;63.40
62055;BME280;48653;51.742;-1.256;2023-12-07T12:29:58;99772.43;;;5.79;62.54
62055;BME280;48653;51.742;-1.256;2023-12-07T12:32:22;99769.21;;;5.50;62.28
62055;BME280;48653;51.742;-1.256;2023-12-07T12:34:51;99759.31;;;5.04;63.26
62055;BME280;48653;51.742;-1.256;2023-12-07T12:37:14;99769.94;;;4.50;65.40
62055;BME280;48653;51.742;-1.256;2023-12-07T12:39:38;99741.11;;;4.44;66.90
62055;BME280;48653;51.742;-1.256;2023-12-07T12:42:04;99737.38;;;4.52;66.85
62055;BME280;48653;51.742;-1.256;2023-12-07T12:44:30;99736.63;;;5.40;65.32
62055;BME280;48653;51.742;-1.256;2023-12-07T12:46:54;99724.11;;;4.62;65.50
62055;BME280;48653;51.742;-1.256;2023-12-07T12:49:19;99723.74;;;4.83;66.13